sensor_id;sensor_type;location;lat;lon;timestamp;P1;durP1;ratioP1;P2;durP2;ratioP2
21507;SDS011;10915;54.352;9.074;2024-03-08T00:00:14;64.10;;;43.90;;
21507;SDS011;10915;54.352;9.074;2024-03-08T00:02:42;63.27;;;41.63;;
21507;SDS011;10915;54.352;9.074;2024-03-08T00:05:09;62.37;;;42.33;;
21507;SDS011;10915;54.352;9.074;2024-03-08T00:07:35;64.87;;;41.80;;
21507;SDS011;10915;54.352;9.074;2024-03-08T00:10:01;59.40;;;42.20;;
21507;SDS011;10915;54.352;9.074;2024-03-08T00:12:30;65.67;;;42.50;;
21507;SDS011;10915;54.352;9.074;2024-03-08T00:14:56;65.87;;;43.00;;
21507;SDS011;10915;54.352;9.074;2024-03-08T00:17:22;68.77;;;42.70;;
21507;SDS011;10915;54.352;9.074;2024-03-08T00:19:48;65.23;;;43.33;;
21507;SDS011;10915;54.352;9.074;2024-03-08T00:22:15;62.77;;;42.70;;
21507;SDS011;10915;54.352;9.074;2024-03-08T00:24:41;66.63;;;42.77;;
21507;SDS011;10915;54.352;9.074;2024-03-08T00:27:07;61.37;;;40.77;;
21507;SDS011;10915;54.352;9.074;2024-03-08T00:29:34;60.90;;;41.97;;
21507;SDS011;10915;54.352;9.074;2024-03-08T00:31:59;63.27;;;41.33;;
21507;SDS011;10915;54.352;9.074;2024-03-08T00:34:26;64.77;;;40.77;;
21507;SDS011;10915;54.352;9.074;2024-03-08T00:36:52;64.07;;;38.73;;
21507;SDS011;10915;54.352;9.074;2024-03-08T00:39:18;62.53;;;39.17;;
21507;SDS011;10915;54.352;9.074;2024-03-08T00:41:45;62.33;;;39.80;;
21507;SDS011;10915;54.352;9.074;2024-03-08T00:44:11;58.97;;;39.13;;
21507;SDS011;10915;54.352;9.074;2024-03-08T00:46:37;60.20;;;39.10;;
21507;SDS011;10915;54.352;9.074;2024-03-08T00:49:03;56.93;;;38.67;;
21507;SDS011;10915;54.352;9.074;2024-03-08T00:51:28;61.50;;;39.00;;
21507;SDS011;10915;54.352;9.074;2024-03-08T00:53:54;56.77;;;37.83;;
21507;SDS011;10915;54.352;9.074;2024-03-08T00:56:20;66.03;;;39.50;;
21507;SDS011;10915;54.352;9.074;2024-03-08T00:58:45;57.53;;;38.63;;
21507;SDS011;10915;54.352;9.074;2024-03-08T01:01:12;58.37;;;38.07;;
21507;SDS011;10915;54.352;9.074;2024-03-08T01:03:42;59.00;;;37.77;;
21507;SDS011;10915;54.352;9.074;2024-03-08T01:06:08;54.37;;;38.57;;
21507;SDS011;10915;54.352;9.074;2024-03-08T01:08:34;56.90;;;37.73;;
21507;SDS011;10915;54.352;9.074;2024-03-08T01:10:59;63.43;;;37.43;;
21507;SDS011;10915;54.352;9.074;2024-03-08T01:13:25;58.63;;;36.10;;
21507;SDS011;10915;54.352;9.074;2024-03-08T01:15:51;58.90;;;36.67;;
21507;SDS011;10915;54.352;9.074;2024-03-08T01:18:16;57.90;;;36.27;;
21507;SDS011;10915;54.352;9.074;2024-03-08T01:20:42;53.93;;;35.23;;
21507;SDS011;10915;54.352;9.074;2024-03-08T01:23:08;54.10;;;35.90;;
21507;SDS011;10915;54.352;9.074;2024-03-08T01:25:33;55.63;;;35.10;;
21507;SDS011;10915;54.352;9.074;2024-03-08T01:27:59;51.27;;;33.73;;
21507;SDS011;10915;54.352;9.074;2024-03-08T01:30:25;59.77;;;34.00;;
21507;SDS011;10915;54.352;9.074;2024-03-08T01:32:50;56.83;;;33.20;;
21507;SDS011;10915;54.352;9.074;2024-03-08T01:35:16;55.70;;;32.67;;
21507;SDS011;10915;54.352;9.074;2024-03-08T01:37:43;54.13;;;33.57;;
21507;SDS011;10915;54.352;9.074;2024-03-08T01:40:09;47.70;;;32.43;;
21507;SDS011;10915;54.352;9.074;2024-03-08T01:42:34;50.03;;;31.33;;
21507;SDS011;10915;54.352;9.074;2024-03-08T01:45:03;49.53;;;32.60;;
21507;SDS011;10915;54.352;9.074;2024-03-08T01:47:31;54.47;;;31.17;;
21507;SDS011;10915;54.352;9.074;2024-03-08T01:49:57;49.07;;;30.67;;
21507;SDS011;10915;54.352;9.074;2024-03-08T01:52:26;47.80;;;32.10;;
21507;SDS011;10915;54.352;9.074;2024-03-08T01:54:53;48.83;;;29.60;;
21507;SDS011;10915;54.352;9.074;2024-03-08T01:57:19;44.07;;;29.43;;
21507;SDS011;10915;54.352;9.074;2024-03-08T01:59:44;43.40;;;28.83;;
21507;SDS011;10915;54.352;9.074;2024-03-08T02:02:10;46.10;;;29.50;;
21507;SDS011;10915;54.352;9.074;2024-03-08T02:04:40;45.93;;;28.53;;
21507;SDS011;10915;54.352;9.074;2024-03-08T02:07:05;48.30;;;29.57;;
21507;SDS011;10915;54.352;9.074;2024-03-08T02:09:31;42.63;;;27.90;;
21507;SDS011;10915;54.352;9.074;2024-03-08T02:11:57;48.33;;;28.63;;
21507;SDS011;10915;54.352;9.074;2024-03-08T02:14:22;44.33;;;27.87;;
21507;SDS011;10915;54.352;9.074;2024-03-08T02:16:48;42.70;;;27.07;;
21507;SDS011;10915;54.352;9.074;2024-03-08T02:19:16;44.87;;;28.40;;
21507;SDS011;10915;54.352;9.074;2024-03-08T02:21:41;44.20;;;27.07;;
21507;SDS011;10915;54.352;9.074;2024-03-08T02:24:08;40.00;;;25.60;;
21507;SDS011;10915;54.352;9.074;2024-03-08T02:26:35;36.37;;;25.33;;
21507;SDS011;10915;54.352;9.074;2024-03-08T02:29:01;37.07;;;25.10;;
21507;SDS011;10915;54.352;9.074;2024-03-08T02:31:26;41.60;;;26.50;;
21507;SDS011;10915;54.352;9.074;2024-03-08T02:33:52;39.33;;;25.97;;
21507;SDS011;10915;54.352;9.074;2024-03-08T02:36:18;37.40;;;24.70;;
21507;SDS011;10915;54.352;9.074;2024-03-08T02:38:43;39.07;;;25.20;;
21507;SDS011;10915;54.352;9.074;2024-03-08T02:41:09;35.83;;;24.27;;
21507;SDS011;10915;54.352;9.074;2024-03-08T02:43:35;40.80;;;24.00;;
21507;SDS011;10915;54.352;9.074;2024-03-08T02:46:01;38.33;;;24.33;;
21507;SDS011;10915;54.352;9.074;2024-03-08T02:48:26;34.93;;;23.83;;
21507;SDS011;10915;54.352;9.074;2024-03-08T02:50:52;33.17;;;22.90;;
21507;SDS011;10915;54.352;9.074;2024-03-08T02:53:18;36.60;;;24.50;;
21507;SDS011;10915;54.352;9.074;2024-03-08T02:55:44;33.37;;;23.63;;
21507;SDS011;10915;54.352;9.074;2024-03-08T02:58:10;37.13;;;24.73;;
21507;SDS011;10915;54.352;9.074;2024-03-08T03:00:36;36.67;;;23.97;;
21507;SDS011;10915;54.352;9.074;2024-03-08T03:03:02;33.87;;;22.83;;
21507;SDS011;10915;54.352;9.074;2024-03-08T03:05:28;37.00;;;24.43;;
21507;SDS011;10915;54.352;9.074;2024-03-08T03:07:55;33.93;;;23.40;;
21507;SDS011;10915;54.352;9.074;2024-03-08T03:10:20;33.73;;;23.07;;
21507;SDS011;10915;54.352;9.074;2024-03-08T03:12:47;36.13;;;23.17;;
21507;SDS011;10915;54.352;9.074;2024-03-08T03:15:16;36.73;;;24.33;;
21507;SDS011;10915;54.352;9.074;2024-03-08T03:17:46;37.60;;;24.20;;
21507;SDS011;10915;54.352;9.074;2024-03-08T03:20:13;38.30;;;24.77;;
21507;SDS011;10915;54.352;9.074;2024-03-08T03:22:39;35.93;;;24.33;;
21507;SDS011;10915;54.352;9.074;2024-03-08T03:25:06;38.57;;;24.43;;
21507;SDS011;10915;54.352;9.074;2024-03-08T03:27:32;37.27;;;24.13;;
21507;SDS011;10915;54.352;9.074;2024-03-08T03:29:58;35.07;;;24.97;;
21507;SDS011;10915;54.352;9.074;2024-03-08T03:32:44;36.80;;;25.47;;
21507;SDS011;10915;54.352;9.074;2024-03-08T03:35:12;40.77;;;25.17;;
21507;SDS011;10915;54.352;9.074;2024-03-08T03:37:38;39.50;;;25.53;;
21507;SDS011;10915;54.352;9.074;2024-03-08T03:40:05;43.70;;;26.23;;
21507;SDS011;10915;54.352;9.074;2024-03-08T03:42:31;43.90;;;27.23;;
21507;SDS011;10915;54.352;9.074;2024-03-08T03:44:56;43.23;;;25.40;;
21507;SDS011;10915;54.352;9.074;2024-03-08T03:47:22;42.17;;;26.07;;
21507;SDS011;10915;54.352;9.074;2024-03-08T03:49:48;37.03;;;25.33;;
21507;SDS011;10915;54.352;9.074;2024-03-08T03:52:13;37.90;;;25.87;;
21507;SDS011;10915;54.352;9.074;2024-03-08T03:54:40;43.97;;;27.57;;
21507;SDS011;10915;54.352;9.074;2024-03-08T03:57:06;43.27;;;27.30;;
21507;SDS011;10915;54.352;9.074;2024-03-08T03:59:33;40.17;;;27.87;;
21507;SDS011;10915;54.352;9.074;2024-03-08T04:01:58;41.37;;;27.43;;
21507;SDS011;10915;54.352;9.074;2024-03-08T04:04:24;43.43;;;27.50;;
21507;SDS011;10915;54.352;9.074;2024-03-08T04:06:49;47.30;;;27.67;;
21507;SDS011;10915;54.352;9.074;2024-03-08T04:09:16;44.23;;;27.37;;
21507;SDS011;10915;54.352;9.074;2024-03-08T04:11:44;45.87;;;27.27;;
21507;SDS011;10915;54.352;9.074;2024-03-08T04:14:10;44.70;;;27.60;;
21507;SDS011;10915;54.352;9.074;2024-03-08T04:16:35;46.03;;;28.53;;
21507;SDS011;10915;54.352;9.074;2024-03-08T04:19:02;41.43;;;27.27;;
21507;SDS011;10915;54.352;9.074;2024-03-08T04:21:29;45.90;;;27.57;;
21507;SDS011;10915;54.352;9.074;2024-03-08T04:23:55;42.23;;;26.50;;
21507;SDS011;10915;54.352;9.074;2024-03-08T04:26:21;43.17;;;26.87;;
21507;SDS011;10915;54.352;9.074;2024-03-08T04:28:47;43.60;;;27.23;;
21507;SDS011;10915;54.352;9.074;2024-03-08T04:31:12;43.07;;;27.47;;
21507;SDS011;10915;54.352;9.074;2024-03-08T04:33:38;47.13;;;27.60;;
21507;SDS011;10915;54.352;9.074;2024-03-08T04:36:04;44.93;;;28.90;;
21507;SDS011;10915;54.352;9.074;2024-03-08T04:38:30;49.40;;;28.70;;
21507;SDS011;10915;54.352;9.074;2024-03-08T04:40:56;43.50;;;28.10;;
21507;SDS011;10915;54.352;9.074;2024-03-08T04:43:22;48.93;;;29.03;;
21507;SDS011;10915;54.352;9.074;2024-03-08T04:45:51;44.37;;;28.17;;
21507;SDS011;10915;54.352;9.074;2024-03-08T04:48:17;48.93;;;29.13;;
21507;SDS011;10915;54.352;9.074;2024-03-08T04:50:43;51.80;;;30.30;;
21507;SDS011;10915;54.352;9.074;2024-03-08T04:53:09;47.50;;;29.20;;
21507;SDS011;10915;54.352;9.074;2024-03-08T04:55:35;52.53;;;30.23;;
21507;SDS011;10915;54.352;9.074;2024-03-08T04:58:02;52.33;;;31.00;;
21507;SDS011;10915;54.352;9.074;2024-03-08T05:00:29;50.47;;;30.20;;
21507;SDS011;10915;54.352;9.074;2024-03-08T05:02:55;52.10;;;31.10;;
21507;SDS011;10915;54.352;9.074;2024-03-08T05:05:20;50.30;;;30.67;;
21507;SDS011;10915;54.352;9.074;2024-03-08T05:07:47;48.90;;;31.27;;
21507;SDS011;10915;54.352;9.074;2024-03-08T05:10:13;56.50;;;32.50;;
21507;SDS011;10915;54.352;9.074;2024-03-08T05:12:42;56.67;;;32.93;;
21507;SDS011;10915;54.352;9.074;2024-03-08T05:15:11;52.90;;;33.33;;
21507;SDS011;10915;54.352;9.074;2024-03-08T05:17:36;56.87;;;34.60;;
21507;SDS011;10915;54.352;9.074;2024-03-08T05:20:02;60.17;;;35.90;;
21507;SDS011;10915;54.352;9.074;2024-03-08T05:22:29;61.23;;;37.27;;
21507;SDS011;10915;54.352;9.074;2024-03-08T05:24:54;67.73;;;40.40;;
21507;SDS011;10915;54.352;9.074;2024-03-08T05:27:20;64.07;;;39.67;;
21507;SDS011;10915;54.352;9.074;2024-03-08T05:29:46;67.47;;;40.77;;
21507;SDS011;10915;54.352;9.074;2024-03-08T05:32:11;63.57;;;40.23;;
21507;SDS011;10915;54.352;9.074;2024-03-08T05:34:37;68.53;;;42.47;;
21507;SDS011;10915;54.352;9.074;2024-03-08T05:37:03;75.63;;;45.80;;
21507;SDS011;10915;54.352;9.074;2024-03-08T05:39:29;81.70;;;48.50;;
21507;SDS011;10915;54.352;9.074;2024-03-08T05:41:55;87.73;;;49.37;;
21507;SDS011;10915;54.352;9.074;2024-03-08T05:44:21;93.20;;;50.73;;
21507;SDS011;10915;54.352;9.074;2024-03-08T05:46:47;90.57;;;52.07;;
21507;SDS011;10915;54.352;9.074;2024-03-08T05:49:12;96.23;;;51.83;;
21507;SDS011;10915;54.352;9.074;2024-03-08T05:51:39;91.70;;;53.77;;
21507;SDS011;10915;54.352;9.074;2024-03-08T05:54:06;98.07;;;53.57;;
21507;SDS011;10915;54.352;9.074;2024-03-08T05:56:36;101.20;;;54.53;;
21507;SDS011;10915;54.352;9.074;2024-03-08T05:59:03;94.37;;;52.80;;
21507;SDS011;10915;54.352;9.074;2024-03-08T06:01:29;103.90;;;55.87;;
21507;SDS011;10915;54.352;9.074;2024-03-08T06:04:01;100.37;;;55.60;;
21507;SDS011;10915;54.352;9.074;2024-03-08T06:06:28;100.40;;;57.03;;
21507;SDS011;10915;54.352;9.074;2024-03-08T06:08:53;102.83;;;59.27;;
21507;SDS011;10915;54.352;9.074;2024-03-08T06:11:21;99.87;;;56.27;;
21507;SDS011;10915;54.352;9.074;2024-03-08T06:13:47;101.97;;;56.37;;
21507;SDS011;10915;54.352;9.074;2024-03-08T06:16:14;97.67;;;56.63;;
21507;SDS011;10915;54.352;9.074;2024-03-08T06:18:40;99.87;;;55.80;;
21507;SDS011;10915;54.352;9.074;2024-03-08T06:21:06;96.87;;;56.03;;
21507;SDS011;10915;54.352;9.074;2024-03-08T06:23:32;97.23;;;56.70;;
21507;SDS011;10915;54.352;9.074;2024-03-08T06:25:58;94.43;;;54.77;;
21507;SDS011;10915;54.352;9.074;2024-03-08T06:28:24;94.03;;;54.13;;
21507;SDS011;10915;54.352;9.074;2024-03-08T06:30:49;95.67;;;55.03;;
21507;SDS011;10915;54.352;9.074;2024-03-08T06:33:16;92.07;;;54.03;;
21507;SDS011;10915;54.352;9.074;2024-03-08T06:35:42;82.20;;;51.20;;
21507;SDS011;10915;54.352;9.074;2024-03-08T06:38:08;83.47;;;51.57;;
21507;SDS011;10915;54.352;9.074;2024-03-08T06:40:34;82.70;;;52.13;;
21507;SDS011;10915;54.352;9.074;2024-03-08T06:43:00;80.80;;;51.37;;
21507;SDS011;10915;54.352;9.074;2024-03-08T06:45:25;84.10;;;52.47;;
21507;SDS011;10915;54.352;9.074;2024-03-08T06:47:51;78.47;;;50.70;;
21507;SDS011;10915;54.352;9.074;2024-03-08T06:50:17;62.00;;;41.17;;
21507;SDS011;10915;54.352;9.074;2024-03-08T06:52:42;82.57;;;52.67;;
21507;SDS011;10915;54.352;9.074;2024-03-08T06:55:09;76.43;;;51.20;;
21507;SDS011;10915;54.352;9.074;2024-03-08T06:57:38;71.47;;;50.43;;
21507;SDS011;10915;54.352;9.074;2024-03-08T07:00:06;78.17;;;50.87;;
21507;SDS011;10915;54.352;9.074;2024-03-08T07:02:35;77.10;;;49.57;;
21507;SDS011;10915;54.352;9.074;2024-03-08T07:05:00;68.30;;;48.10;;
21507;SDS011;10915;54.352;9.074;2024-03-08T07:07:26;73.30;;;48.40;;
21507;SDS011;10915;54.352;9.074;2024-03-08T07:09:52;67.97;;;47.60;;
21507;SDS011;10915;54.352;9.074;2024-03-08T07:12:18;68.20;;;47.87;;
21507;SDS011;10915;54.352;9.074;2024-03-08T07:14:45;66.10;;;47.33;;
21507;SDS011;10915;54.352;9.074;2024-03-08T07:17:11;70.77;;;48.07;;
21507;SDS011;10915;54.352;9.074;2024-03-08T07:19:37;65.63;;;46.93;;
21507;SDS011;10915;54.352;9.074;2024-03-08T07:22:03;62.83;;;45.57;;
21507;SDS011;10915;54.352;9.074;2024-03-08T07:24:30;63.73;;;46.50;;
21507;SDS011;10915;54.352;9.074;2024-03-08T07:27:04;63.87;;;46.37;;
21507;SDS011;10915;54.352;9.074;2024-03-08T07:29:30;58.60;;;45.47;;
21507;SDS011;10915;54.352;9.074;2024-03-08T07:32:00;59.93;;;44.00;;
21507;SDS011;10915;54.352;9.074;2024-03-08T07:34:25;57.93;;;43.93;;
21507;SDS011;10915;54.352;9.074;2024-03-08T07:36:51;58.23;;;43.80;;
21507;SDS011;10915;54.352;9.074;2024-03-08T07:39:17;53.20;;;42.43;;
21507;SDS011;10915;54.352;9.074;2024-03-08T07:41:42;53.10;;;41.43;;
21507;SDS011;10915;54.352;9.074;2024-03-08T07:44:08;56.10;;;40.63;;
21507;SDS011;10915;54.352;9.074;2024-03-08T07:46:34;50.47;;;39.10;;
21507;SDS011;10915;54.352;9.074;2024-03-08T07:49:00;48.30;;;37.47;;
21507;SDS011;10915;54.352;9.074;2024-03-08T07:51:25;45.63;;;38.27;;
21507;SDS011;10915;54.352;9.074;2024-03-08T07:53:51;47.33;;;37.43;;
21507;SDS011;10915;54.352;9.074;2024-03-08T07:56:17;44.23;;;35.57;;
21507;SDS011;10915;54.352;9.074;2024-03-08T07:58:43;42.80;;;35.33;;
21507;SDS011;10915;54.352;9.074;2024-03-08T08:01:16;41.80;;;35.03;;
21507;SDS011;10915;54.352;9.074;2024-03-08T08:03:42;43.27;;;34.03;;
21507;SDS011;10915;54.352;9.074;2024-03-08T08:06:08;42.37;;;33.87;;
21507;SDS011;10915;54.352;9.074;2024-03-08T08:08:34;45.03;;;34.40;;
21507;SDS011;10915;54.352;9.074;2024-03-08T08:11:01;39.80;;;32.63;;
21507;SDS011;10915;54.352;9.074;2024-03-08T08:13:27;41.23;;;33.90;;
21507;SDS011;10915;54.352;9.074;2024-03-08T08:15:57;39.93;;;32.97;;
21507;SDS011;10915;54.352;9.074;2024-03-08T08:18:23;41.03;;;32.63;;
21507;SDS011;10915;54.352;9.074;2024-03-08T08:20:50;39.80;;;31.87;;
21507;SDS011;10915;54.352;9.074;2024-03-08T08:23:17;36.90;;;30.43;;
21507;SDS011;10915;54.352;9.074;2024-03-08T08:25:44;37.80;;;31.03;;
21507;SDS011;10915;54.352;9.074;2024-03-08T08:28:10;38.67;;;30.90;;
21507;SDS011;10915;54.352;9.074;2024-03-08T08:30:37;34.07;;;28.13;;
21507;SDS011;10915;54.352;9.074;2024-03-08T08:33:03;33.97;;;28.17;;
21507;SDS011;10915;54.352;9.074;2024-03-08T08:35:30;33.47;;;26.93;;
21507;SDS011;10915;54.352;9.074;2024-03-08T08:37:57;31.87;;;25.53;;
21507;SDS011;10915;54.352;9.074;2024-03-08T08:40:24;30.83;;;24.50;;
21507;SDS011;10915;54.352;9.074;2024-03-08T08:42:50;30.10;;;24.93;;
21507;SDS011;10915;54.352;9.074;2024-03-08T08:45:18;30.30;;;24.23;;
21507;SDS011;10915;54.352;9.074;2024-03-08T08:47:46;27.23;;;23.83;;
21507;SDS011;10915;54.352;9.074;2024-03-08T08:50:15;30.80;;;24.57;;
21507;SDS011;10915;54.352;9.074;2024-03-08T08:52:47;31.37;;;23.57;;
21507;SDS011;10915;54.352;9.074;2024-03-08T08:55:13;28.00;;;22.57;;
21507;SDS011;10915;54.352;9.074;2024-03-08T08:57:42;28.03;;;24.10;;
21507;SDS011;10915;54.352;9.074;2024-03-08T09:00:09;28.40;;;22.57;;
21507;SDS011;10915;54.352;9.074;2024-03-08T09:02:40;28.53;;;21.83;;
21507;SDS011;10915;54.352;9.074;2024-03-08T09:05:06;29.20;;;22.33;;
21507;SDS011;10915;54.352;9.074;2024-03-08T09:07:34;25.83;;;21.37;;
21507;SDS011;10915;54.352;9.074;2024-03-08T09:10:00;26.43;;;21.50;;
21507;SDS011;10915;54.352;9.074;2024-03-08T09:12:26;25.93;;;21.00;;
21507;SDS011;10915;54.352;9.074;2024-03-08T09:14:52;25.13;;;20.00;;
21507;SDS011;10915;54.352;9.074;2024-03-08T09:17:17;24.07;;;20.13;;
21507;SDS011;10915;54.352;9.074;2024-03-08T09:19:48;25.60;;;19.00;;
21507;SDS011;10915;54.352;9.074;2024-03-08T09:22:15;22.70;;;18.90;;
21507;SDS011;10915;54.352;9.074;2024-03-08T09:24:41;26.60;;;18.90;;
21507;SDS011;10915;54.352;9.074;2024-03-08T09:27:08;25.20;;;18.17;;
21507;SDS011;10915;54.352;9.074;2024-03-08T09:29:35;24.10;;;18.20;;
21507;SDS011;10915;54.352;9.074;2024-03-08T09:32:00;23.27;;;17.67;;
21507;SDS011;10915;54.352;9.074;2024-03-08T09:34:26;22.93;;;17.40;;
21507;SDS011;10915;54.352;9.074;2024-03-08T09:36:52;22.87;;;17.70;;
21507;SDS011;10915;54.352;9.074;2024-03-08T09:39:18;21.70;;;18.03;;
21507;SDS011;10915;54.352;9.074;2024-03-08T09:41:45;23.30;;;17.80;;
21507;SDS011;10915;54.352;9.074;2024-03-08T09:44:15;22.17;;;18.90;;
21507;SDS011;10915;54.352;9.074;2024-03-08T09:46:41;25.10;;;18.13;;
21507;SDS011;10915;54.352;9.074;2024-03-08T09:49:07;21.60;;;17.33;;
21507;SDS011;10915;54.352;9.074;2024-03-08T09:51:33;19.07;;;16.63;;
21507;SDS011;10915;54.352;9.074;2024-03-08T09:54:03;21.53;;;16.83;;
21507;SDS011;10915;54.352;9.074;2024-03-08T09:56:30;22.60;;;16.83;;
21507;SDS011;10915;54.352;9.074;2024-03-08T09:59:01;20.87;;;16.50;;
21507;SDS011;10915;54.352;9.074;2024-03-08T10:01:45;20.50;;;17.37;;
21507;SDS011;10915;54.352;9.074;2024-03-08T10:04:11;21.37;;;17.97;;
21507;SDS011;10915;54.352;9.074;2024-03-08T10:06:39;22.73;;;17.40;;
21507;SDS011;10915;54.352;9.074;2024-03-08T10:09:04;24.33;;;17.87;;
21507;SDS011;10915;54.352;9.074;2024-03-08T10:11:32;22.07;;;17.03;;
21507;SDS011;10915;54.352;9.074;2024-03-08T10:13:58;21.80;;;18.73;;
21507;SDS011;10915;54.352;9.074;2024-03-08T10:16:25;25.40;;;19.57;;
21507;SDS011;10915;54.352;9.074;2024-03-08T10:18:52;20.90;;;17.50;;
21507;SDS011;10915;54.352;9.074;2024-03-08T10:21:18;22.53;;;18.30;;
21507;SDS011;10915;54.352;9.074;2024-03-08T10:23:44;21.87;;;18.30;;
21507;SDS011;10915;54.352;9.074;2024-03-08T10:26:13;22.63;;;18.67;;
21507;SDS011;10915;54.352;9.074;2024-03-08T10:28:47;24.10;;;20.13;;
21507;SDS011;10915;54.352;9.074;2024-03-08T10:31:14;25.67;;;19.00;;
21507;SDS011;10915;54.352;9.074;2024-03-08T10:33:44;27.37;;;19.77;;
21507;SDS011;10915;54.352;9.074;2024-03-08T10:36:11;24.47;;;20.03;;
21507;SDS011;10915;54.352;9.074;2024-03-08T10:38:39;27.17;;;20.57;;
21507;SDS011;10915;54.352;9.074;2024-03-08T10:41:06;26.47;;;18.97;;
21507;SDS011;10915;54.352;9.074;2024-03-08T10:49:12;24.70;;;19.37;;
21507;SDS011;10915;54.352;9.074;2024-03-08T10:51:42;28.47;;;20.63;;
21507;SDS011;10915;54.352;9.074;2024-03-08T10:54:09;27.37;;;20.00;;
21507;SDS011;10915;54.352;9.074;2024-03-08T10:56:36;25.10;;;20.13;;
21507;SDS011;10915;54.352;9.074;2024-03-08T10:59:02;25.50;;;20.27;;
21507;SDS011;10915;54.352;9.074;2024-03-08T11:01:29;28.33;;;20.63;;
21507;SDS011;10915;54.352;9.074;2024-03-08T11:03:56;23.77;;;19.77;;
21507;SDS011;10915;54.352;9.074;2024-03-08T11:09:03;24.57;;;19.07;;
21507;SDS011;10915;54.352;9.074;2024-03-08T11:11:47;25.10;;;19.97;;
21507;SDS011;10915;54.352;9.074;2024-03-08T11:17:14;25.73;;;19.97;;
21507;SDS011;10915;54.352;9.074;2024-03-08T11:19:46;24.37;;;19.37;;
21507;SDS011;10915;54.352;9.074;2024-03-08T11:22:55;23.87;;;19.03;;
21507;SDS011;10915;54.352;9.074;2024-03-08T11:25:03;23.67;;;18.47;;
21507;SDS011;10915;54.352;9.074;2024-03-08T11:27:35;24.63;;;19.23;;
21507;SDS011;10915;54.352;9.074;2024-03-08T11:30:05;23.60;;;18.53;;
21507;SDS011;10915;54.352;9.074;2024-03-08T11:32:52;24.40;;;17.27;;
21507;SDS011;10915;54.352;9.074;2024-03-08T11:35:21;26.47;;;18.83;;
21507;SDS011;10915;54.352;9.074;2024-03-08T11:37:50;25.73;;;18.00;;
21507;SDS011;10915;54.352;9.074;2024-03-08T11:40:15;27.50;;;18.43;;
21507;SDS011;10915;54.352;9.074;2024-03-08T11:42:47;25.70;;;18.93;;
21507;SDS011;10915;54.352;9.074;2024-03-08T11:45:14;26.10;;;18.70;;
21507;SDS011;10915;54.352;9.074;2024-03-08T11:47:43;25.07;;;18.10;;
21507;SDS011;10915;54.352;9.074;2024-03-08T11:50:15;26.37;;;18.30;;
21507;SDS011;10915;54.352;9.074;2024-03-08T11:52:43;30.70;;;19.40;;
21507;SDS011;10915;54.352;9.074;2024-03-08T11:55:09;26.70;;;19.13;;
21507;SDS011;10915;54.352;9.074;2024-03-08T11:57:37;24.27;;;18.73;;
21507;SDS011;10915;54.352;9.074;2024-03-08T12:00:03;24.47;;;18.03;;
21507;SDS011;10915;54.352;9.074;2024-03-08T12:02:32;27.63;;;18.93;;
21507;SDS011;10915;54.352;9.074;2024-03-08T12:05:03;26.23;;;17.67;;
21507;SDS011;10915;54.352;9.074;2024-03-08T12:07:31;26.20;;;18.60;;
21507;SDS011;10915;54.352;9.074;2024-03-08T12:10:19;25.80;;;18.73;;
21507;SDS011;10915;54.352;9.074;2024-03-08T12:12:55;24.67;;;18.47;;
21507;SDS011;10915;54.352;9.074;2024-03-08T12:15:31;24.47;;;18.83;;
21507;SDS011;10915;54.352;9.074;2024-03-08T12:18:10;26.73;;;19.70;;
21507;SDS011;10915;54.352;9.074;2024-03-08T12:20:37;28.10;;;19.17;;
21507;SDS011;10915;54.352;9.074;2024-03-08T12:23:04;22.10;;;16.63;;
21507;SDS011;10915;54.352;9.074;2024-03-08T12:25:31;24.83;;;17.20;;
21507;SDS011;10915;54.352;9.074;2024-03-08T12:28:09;24.60;;;16.10;;
21507;SDS011;10915;54.352;9.074;2024-03-08T12:30:47;24.47;;;17.90;;
21507;SDS011;10915;54.352;9.074;2024-03-08T12:33:14;25.53;;;17.33;;
21507;SDS011;10915;54.352;9.074;2024-03-08T12:35:39;24.37;;;16.47;;
21507;SDS011;10915;54.352;9.074;2024-03-08T12:38:07;21.93;;;14.87;;
21507;SDS011;10915;54.352;9.074;2024-03-08T12:40:33;21.37;;;15.73;;
21507;SDS011;10915;54.352;9.074;2024-03-08T12:43:00;24.23;;;16.87;;
21507;SDS011;10915;54.352;9.074;2024-03-08T12:45:27;22.07;;;15.23;;
21507;SDS011;10915;54.352;9.074;2024-03-08T12:47:53;22.50;;;15.77;;
21507;SDS011;10915;54.352;9.074;2024-03-08T12:50:20;21.03;;;14.67;;
21507;SDS011;10915;54.352;9.074;2024-03-08T12:52:47;25.53;;;16.03;;
21507;SDS011;10915;54.352;9.074;2024-03-08T12:55:13;22.97;;;16.20;;
21507;SDS011;10915;54.352;9.074;2024-03-08T12:57:41;22.93;;;16.13;;
21507;SDS011;10915;54.352;9.074;2024-03-08T13:00:07;21.77;;;16.00;;
21507;SDS011;10915;54.352;9.074;2024-03-08T13:02:38;21.50;;;15.73;;
21507;SDS011;10915;54.352;9.074;2024-03-08T13:05:05;21.27;;;14.67;;
21507;SDS011;10915;54.352;9.074;2024-03-08T13:07:31;20.47;;;15.40;;
21507;SDS011;10915;54.352;9.074;2024-03-08T13:09:58;21.60;;;14.33;;
21507;SDS011;10915;54.352;9.074;2024-03-08T13:12:25;22.27;;;14.80;;
21507;SDS011;10915;54.352;9.074;2024-03-08T13:14:50;20.00;;;14.53;;
21507;SDS011;10915;54.352;9.074;2024-03-08T13:17:16;18.90;;;13.57;;
21507;SDS011;10915;54.352;9.074;2024-03-08T13:19:46;19.93;;;13.10;;
21507;SDS011;10915;54.352;9.074;2024-03-08T13:22:12;21.87;;;14.37;;
21507;SDS011;10915;54.352;9.074;2024-03-08T13:24:41;22.00;;;15.20;;
21507;SDS011;10915;54.352;9.074;2024-03-08T13:27:07;23.67;;;16.10;;
21507;SDS011;10915;54.352;9.074;2024-03-08T13:29:44;23.60;;;16.83;;
21507;SDS011;10915;54.352;9.074;2024-03-08T13:32:11;21.57;;;15.80;;
21507;SDS011;10915;54.352;9.074;2024-03-08T13:34:40;25.10;;;17.47;;
21507;SDS011;10915;54.352;9.074;2024-03-08T13:37:06;22.73;;;14.87;;
21507;SDS011;10915;54.352;9.074;2024-03-08T13:39:32;22.00;;;14.97;;
21507;SDS011;10915;54.352;9.074;2024-03-08T13:42:06;20.00;;;15.03;;
21507;SDS011;10915;54.352;9.074;2024-03-08T13:44:35;19.37;;;14.17;;
21507;SDS011;10915;54.352;9.074;2024-03-08T13:47:01;21.37;;;15.17;;
21507;SDS011;10915;54.352;9.074;2024-03-08T13:49:29;22.90;;;17.37;;
21507;SDS011;10915;54.352;9.074;2024-03-08T13:51:55;25.37;;;19.43;;
21507;SDS011;10915;54.352;9.074;2024-03-08T13:54:23;26.77;;;19.70;;
21507;SDS011;10915;54.352;9.074;2024-03-08T13:56:49;28.17;;;20.50;;
21507;SDS011;10915;54.352;9.074;2024-03-08T13:59:19;26.13;;;19.63;;
21507;SDS011;10915;54.352;9.074;2024-03-08T14:01:47;30.43;;;21.40;;
21507;SDS011;10915;54.352;9.074;2024-03-08T14:04:14;27.20;;;20.87;;
21507;SDS011;10915;54.352;9.074;2024-03-08T14:06:42;27.73;;;20.07;;
21507;SDS011;10915;54.352;9.074;2024-03-08T14:09:10;27.07;;;21.17;;
21507;SDS011;10915;54.352;9.074;2024-03-08T14:11:41;29.90;;;21.43;;
21507;SDS011;10915;54.352;9.074;2024-03-08T14:14:10;28.07;;;21.03;;
21507;SDS011;10915;54.352;9.074;2024-03-08T14:16:39;28.93;;;21.63;;
21507;SDS011;10915;54.352;9.074;2024-03-08T14:19:05;24.27;;;19.87;;
21507;SDS011;10915;54.352;9.074;2024-03-08T14:21:31;29.03;;;22.33;;
21507;SDS011;10915;54.352;9.074;2024-03-08T14:23:58;30.03;;;20.87;;
21507;SDS011;10915;54.352;9.074;2024-03-08T14:26:24;27.97;;;21.97;;
21507;SDS011;10915;54.352;9.074;2024-03-08T14:28:49;28.50;;;21.73;;
21507;SDS011;10915;54.352;9.074;2024-03-08T14:31:19;28.10;;;22.20;;